createdAt,value
2023-04-16T00:01:46.430Z,79.37
2023-04-16T00:06:48.203Z,79.36
2023-04-16T00:11:49.980Z,79.56
2023-04-16T00:16:51.751Z,79.32
2023-04-16T00:21:53.692Z,79.20
2023-04-16T00:26:56.033Z,79.44
2023-04-16T00:31:57.894Z,79.17
2023-04-16T00:36:59.775Z,79.06
2023-04-16T00:42:01.943Z,79.04
2023-04-16T00:47:04.548Z,79.23
2023-04-16T00:52:06.750Z,79.05
2023-04-16T00:57:09.197Z,79.07
2023-04-16T01:02:13.002Z,78.94
2023-04-16T01:07:15.088Z,79.00
2023-04-16T01:12:16.918Z,79.17
2023-04-16T01:17:18.705Z,78.68
2023-04-16T01:22:20.924Z,78.81
2023-04-16T01:27:23.350Z,78.63
2023-04-16T01:32:25.409Z,78.78
2023-04-16T01:37:27.425Z,78.75
2023-04-16T01:42:29.290Z,78.64
2023-04-16T01:47:31.329Z,78.77
2023-04-16T01:52:33.206Z,78.49
2023-04-16T01:57:35.080Z,78.51
2023-04-16T02:02:38.503Z,78.34
2023-04-16T02:07:40.509Z,78.59
2023-04-16T02:12:42.285Z,78.31
2023-04-16T02:17:44.304Z,78.35
2023-04-16T02:22:49.369Z,78.43
2023-04-16T02:27:55.039Z,78.23
2023-04-16T02:33:05.647Z,78.20
2023-04-16T02:38:08.845Z,78.34
2023-04-16T02:43:11.167Z,78.42
2023-04-16T02:48:13.605Z,78.18
2023-04-16T02:53:15.408Z,78.33
2023-04-16T02:58:17.265Z,78.36
2023-04-16T03:03:19.147Z,78.33
2023-04-16T03:08:21.159Z,78.23
2023-04-16T03:13:23.108Z,78.12
2023-04-16T03:18:25.007Z,78.09
2023-04-16T03:23:26.857Z,77.97
2023-04-16T03:28:28.659Z,77.97
2023-04-16T03:33:30.395Z,77.67
2023-04-16T03:38:32.156Z,77.69
2023-04-16T03:43:34.749Z,77.46
2023-04-16T03:48:36.964Z,77.62
2023-04-16T03:53:39.005Z,77.42
2023-04-16T03:58:41.107Z,77.48
2023-04-16T04:03:44.067Z,77.42
2023-04-16T04:08:47.793Z,77.27
2023-04-16T04:13:50.302Z,77.42
2023-04-16T04:18:52.081Z,77.43
2023-04-16T04:23:56.038Z,77.48
2023-04-16T04:28:58.703Z,77.51
2023-04-16T04:34:00.730Z,77.40
2023-04-16T04:39:03.752Z,77.38
2023-04-16T04:44:05.823Z,77.43
2023-04-16T04:49:08.162Z,77.40
2023-04-16T04:54:10.368Z,77.38
2023-04-16T04:59:12.776Z,77.39
2023-04-16T05:04:15.880Z,77.44
2023-04-16T05:09:17.761Z,77.45
2023-04-16T05:14:19.669Z,77.66
2023-04-16T05:19:21.810Z,77.94
2023-04-16T05:24:23.622Z,77.89
2023-04-16T05:29:26.260Z,77.83
2023-04-16T05:34:28.013Z,78.18
2023-04-16T05:39:29.745Z,78.11
2023-04-16T05:44:31.503Z,78.17
2023-04-16T05:49:33.307Z,78.33
2023-04-16T05:54:35.445Z,78.48
2023-04-16T05:59:37.276Z,78.56
2023-04-16T06:04:39.081Z,78.65
2023-04-16T06:09:41.120Z,78.76
2023-04-16T06:14:42.903Z,78.80
2023-04-16T06:19:44.752Z,78.86
2023-04-16T06:24:46.626Z,79.01
2023-04-16T06:29:48.619Z,79.17
2023-04-16T06:34:50.450Z,79.46
2023-04-16T06:39:52.246Z,79.42
2023-04-16T06:44:54.053Z,79.47
2023-04-16T06:49:55.789Z,79.50
2023-04-16T06:54:57.539Z,79.51
2023-04-16T06:59:59.299Z,79.62
2023-04-16T07:05:01.152Z,79.65
2023-04-16T07:10:03.494Z,79.69
2023-04-16T07:15:06.269Z,79.79
2023-04-16T07:20:08.953Z,79.80
2023-04-16T07:25:11.050Z,79.79
2023-04-16T07:30:12.955Z,79.77
2023-04-16T07:35:14.809Z,79.70
2023-04-16T07:40:16.639Z,79.51
2023-04-16T07:45:19.774Z,79.55
2023-04-16T07:50:21.583Z,79.74
2023-04-16T07:55:23.393Z,79.78
2023-04-16T08:00:25.218Z,79.73
2023-04-16T08:05:27.765Z,79.48
2023-04-16T08:10:29.856Z,79.66
2023-04-16T08:15:31.866Z,79.53
2023-04-16T08:20:33.783Z,79.39
2023-04-16T08:25:35.820Z,79.42
2023-04-16T08:30:37.739Z,79.12
2023-04-16T08:35:39.874Z,78.86
2023-04-16T08:40:42.090Z,78.70
2023-04-16T08:45:44.231Z,78.93
2023-04-16T08:50:48.339Z,78.64
2023-04-16T08:55:51.966Z,78.76
2023-04-16T09:00:55.805Z,78.59
2023-04-16T09:05:59.303Z,78.60
2023-04-16T09:11:01.734Z,78.59
2023-04-16T09:16:04.154Z,78.54
2023-04-16T09:21:08.109Z,78.27
2023-04-16T09:26:10.090Z,78.04
2023-04-16T09:31:16.646Z,77.80
2023-04-16T09:36:23.159Z,77.45
2023-04-16T09:41:28.612Z,77.29
2023-04-16T09:46:32.326Z,77.09
2023-04-16T09:51:37.848Z,77.21
2023-04-16T09:56:42.409Z,77.35
2023-04-16T10:01:46.860Z,77.24
2023-04-16T10:07:07.629Z,77.03
2023-04-16T10:12:10.427Z,76.87
2023-04-16T10:17:12.382Z,76.83
2023-04-16T10:22:14.317Z,76.68
2023-04-16T10:27:17.288Z,76.56
2023-04-16T10:32:22.014Z,76.69
2023-04-16T10:37:33.256Z,76.56
2023-04-16T10:42:35.197Z,76.57
2023-04-16T10:47:40.832Z,76.50
2023-04-16T10:52:42.667Z,76.61
2023-04-16T10:57:49.477Z,76.31
2023-04-16T11:02:55.042Z,76.00
2023-04-16T11:08:14.550Z,75.52
2023-04-16T11:13:18.708Z,75.39
2023-04-16T11:18:20.687Z,75.26
2023-04-16T11:23:22.615Z,75.01
2023-04-16T11:28:35.951Z,74.77
2023-04-16T11:33:38.308Z,74.94
2023-04-16T11:38:41.833Z,74.88
2023-04-16T11:43:43.701Z,74.54
2023-04-16T11:48:51.181Z,74.41
2023-04-16T11:53:54.379Z,74.31
2023-04-16T11:59:17.090Z,73.93
2023-04-16T12:04:21.578Z,74.00
2023-04-16T12:09:27.615Z,73.87
2023-04-16T12:14:30.336Z,73.98
2023-04-16T12:19:32.367Z,73.90
2023-04-16T12:24:37.044Z,73.71
2023-04-16T12:29:38.899Z,73.28
2023-04-16T12:34:51.675Z,72.53
2023-04-16T12:39:54.432Z,72.19
2023-04-16T12:44:56.439Z,71.87
2023-04-16T12:49:59.045Z,70.95
2023-04-16T12:55:02.271Z,70.93
2023-04-16T13:00:06.496Z,70.87
2023-04-16T13:05:09.090Z,70.84
2023-04-16T13:10:11.099Z,70.78
2023-04-16T13:15:17.157Z,70.44
2023-04-16T13:20:19.016Z,70.51
2023-04-16T13:25:20.922Z,70.54
2023-04-16T13:30:22.764Z,70.32
2023-04-16T13:35:24.767Z,70.00
2023-04-16T13:40:26.639Z,69.34
2023-04-16T13:45:28.824Z,69.70
2023-04-16T13:50:31.061Z,69.45
2023-04-16T13:55:33.008Z,69.38
2023-04-16T14:00:34.955Z,69.59
2023-04-16T14:05:37.003Z,69.65
2023-04-16T14:10:38.870Z,69.73
2023-04-16T14:15:40.717Z,69.71
2023-04-16T14:20:42.476Z,69.73
2023-04-16T14:25:44.504Z,69.61
2023-04-16T14:30:46.477Z,69.75
2023-04-16T14:35:50.387Z,70.06
2023-04-16T14:40:52.389Z,70.12
2023-04-16T14:45:54.916Z,70.31
2023-04-16T14:50:56.849Z,70.25
2023-04-16T14:55:59.128Z,70.31
2023-04-16T15:01:01.105Z,70.41
2023-04-16T15:06:03.156Z,70.50
2023-04-16T15:11:05.196Z,70.67
2023-04-16T15:16:07.049Z,70.82
2023-04-16T15:21:10.519Z,70.77
2023-04-16T15:26:13.856Z,70.48
2023-04-16T15:31:15.928Z,70.42
2023-04-16T15:36:18.167Z,70.71
2023-04-16T15:41:20.105Z,70.53
2023-04-16T15:46:22.117Z,70.66
2023-04-16T15:51:24.161Z,70.77
2023-04-16T15:56:26.594Z,70.81
2023-04-16T16:01:28.471Z,71.02
2023-04-16T16:06:31.880Z,71.09
2023-04-16T16:11:34.062Z,70.99
2023-04-16T16:16:36.390Z,70.98
2023-04-16T16:21:38.727Z,70.95
2023-04-16T16:26:40.655Z,70.89
2023-04-16T16:31:42.770Z,71.02
2023-04-16T16:36:47.781Z,71.30
2023-04-16T16:41:52.327Z,71.32
2023-04-16T16:46:54.559Z,71.46
2023-04-16T16:51:56.332Z,71.61
2023-04-16T16:56:58.809Z,71.69
2023-04-16T17:02:00.864Z,71.81
2023-04-16T17:07:03.144Z,71.94
2023-04-16T17:12:05.694Z,71.98
2023-04-16T17:17:07.531Z,72.18
2023-04-16T17:22:10.103Z,72.19
2023-04-16T17:27:12.114Z,72.48
2023-04-16T17:32:14.028Z,72.41
2023-04-16T17:37:16.567Z,72.66
2023-04-16T17:42:18.944Z,72.69
2023-04-16T17:47:21.240Z,72.89
2023-04-16T17:52:23.482Z,73.12
2023-04-16T17:57:25.333Z,73.18
2023-04-16T18:02:27.445Z,73.18
2023-04-16T18:07:29.390Z,73.42
2023-04-16T18:12:31.338Z,73.45
2023-04-16T18:17:33.679Z,73.36
2023-04-16T18:22:35.575Z,73.54
2023-04-16T18:27:38.077Z,73.54
2023-04-16T18:37:47.700Z,73.87
2023-04-16T18:42:49.408Z,73.86
2023-04-16T18:47:51.305Z,73.93
2023-04-16T18:52:56.239Z,73.95
2023-04-16T18:57:58.147Z,74.21
2023-04-16T19:02:59.926Z,74.21
2023-04-16T19:08:05.180Z,74.24
2023-04-16T19:13:06.952Z,74.50
2023-04-16T19:18:09.049Z,74.69
2023-04-16T19:23:11.653Z,74.74
2023-04-16T19:28:13.533Z,74.74
2023-04-16T19:33:15.591Z,74.86
2023-04-16T19:38:17.476Z,74.79
2023-04-16T19:43:19.330Z,74.96
2023-04-16T19:48:21.566Z,74.96
2023-04-16T19:53:24.554Z,75.13
2023-04-16T19:58:26.523Z,75.23
2023-04-16T20:03:28.491Z,75.31
2023-04-16T20:08:30.788Z,75.39
2023-04-16T20:13:32.894Z,75.45
2023-04-16T20:18:41.712Z,75.56
2023-04-16T20:23:43.693Z,75.49
2023-04-16T20:28:45.778Z,75.55
2023-04-16T20:33:47.619Z,75.60
2023-04-16T20:38:51.507Z,75.63
2023-04-16T20:43:54.548Z,75.61
2023-04-16T20:48:56.416Z,75.67
2023-04-16T20:53:58.283Z,75.86
2023-04-16T20:59:00.054Z,75.97
2023-04-16T21:04:02.122Z,76.08
2023-04-16T21:09:06.075Z,76.13
2023-04-16T21:14:07.958Z,76.24
2023-04-16T21:19:10.056Z,76.12
2023-04-16T21:24:12.558Z,76.18
2023-04-16T21:29:14.516Z,76.16
2023-04-16T21:34:16.614Z,76.26
2023-04-16T21:39:19.870Z,76.60
2023-04-16T21:44:21.638Z,76.73
2023-04-16T21:49:23.750Z,76.63
2023-04-16T21:54:25.806Z,76.62
2023-04-16T21:59:27.533Z,76.71
2023-04-16T22:04:38.593Z,76.73
2023-04-16T22:09:40.911Z,76.66
2023-04-16T22:14:52.218Z,76.69
2023-04-16T22:20:04.953Z,76.71
2023-04-16T22:25:07.497Z,76.51
2023-04-16T22:30:13.305Z,76.80
2023-04-16T22:35:15.627Z,76.77
2023-04-16T22:40:18.468Z,76.83
2023-04-16T22:45:20.205Z,76.85
2023-04-16T22:50:23.224Z,76.87
2023-04-16T22:55:25.017Z,76.98
2023-04-16T23:00:27.417Z,77.17
2023-04-16T23:05:29.399Z,77.14
2023-04-16T23:10:31.217Z,77.27
2023-04-16T23:15:33.098Z,77.19
2023-04-16T23:20:34.981Z,77.14
2023-04-16T23:25:37.035Z,77.16
2023-04-16T23:30:38.786Z,77.26
2023-04-16T23:35:40.584Z,77.30
2023-04-16T23:40:42.336Z,77.21
2023-04-16T23:45:44.208Z,77.34
2023-04-16T23:50:46.129Z,77.43
2023-04-16T23:55:47.967Z,77.32
